createdAt,value
2023-12-03T00:01:31.190Z,94.23
2023-12-03T00:04:02.952Z,94.23
2023-12-03T00:06:31.602Z,94.16
2023-12-03T00:09:00.772Z,93.96
2023-12-03T00:11:29.618Z,93.77
2023-12-03T00:13:57.742Z,93.93
2023-12-03T00:16:26.284Z,93.93
2023-12-03T00:18:55.953Z,94.14
2023-12-03T00:21:24.469Z,94.09
2023-12-03T00:23:52.711Z,94.20
2023-12-03T00:26:21.171Z,94.70
2023-12-03T00:28:49.408Z,94.48
2023-12-03T00:31:17.981Z,94.21
2023-12-03T00:33:46.293Z,94.29
2023-12-03T00:36:18.779Z,94.36
2023-12-03T00:38:46.929Z,95.32
2023-12-03T00:41:17.554Z,95.13
2023-12-03T00:43:45.669Z,94.86
2023-12-03T00:46:14.394Z,94.88
2023-12-03T00:48:42.583Z,94.95
2023-12-03T00:51:11.098Z,95.56
2023-12-03T00:53:40.948Z,95.88
2023-12-03T00:56:10.102Z,96.06
2023-12-03T00:58:38.361Z,96.20
2023-12-03T01:01:07.340Z,96.37
2023-12-03T01:03:35.524Z,96.97
2023-12-03T01:06:04.135Z,96.70
2023-12-03T01:08:32.336Z,96.56
2023-12-03T01:11:05.483Z,95.78
2023-12-03T01:13:33.801Z,95.42
2023-12-03T01:16:02.953Z,95.34
2023-12-03T01:18:31.267Z,95.68
2023-12-03T01:20:59.709Z,95.50
2023-12-03T01:23:27.936Z,95.65
2023-12-03T01:25:57.187Z,95.71
2023-12-03T01:28:26.809Z,95.60
2023-12-03T01:30:55.564Z,95.25
2023-12-03T01:33:24.043Z,95.17
2023-12-03T01:35:52.610Z,95.11
2023-12-03T01:38:20.737Z,94.96
2023-12-03T01:40:53.290Z,94.88
2023-12-03T01:43:21.608Z,95.15
2023-12-03T01:45:51.830Z,94.78
2023-12-03T01:48:20.083Z,94.72
2023-12-03T01:50:50.460Z,94.72
2023-12-03T01:53:19.175Z,95.45
2023-12-03T01:55:47.677Z,95.38
2023-12-03T01:58:16.243Z,95.53
2023-12-03T02:00:44.799Z,95.36
2023-12-03T02:03:14.383Z,95.39
2023-12-03T02:05:43.021Z,95.46
2023-12-03T02:08:11.332Z,95.75
2023-12-03T02:10:39.872Z,95.53
2023-12-03T02:13:08.336Z,96.00
2023-12-03T02:15:37.064Z,95.55
2023-12-03T02:18:05.836Z,95.52
2023-12-03T02:20:35.865Z,95.53
2023-12-03T02:23:05.401Z,95.63
2023-12-03T02:25:35.337Z,95.66
2023-12-03T02:28:03.430Z,95.54
2023-12-03T02:30:32.096Z,95.75
2023-12-03T02:33:00.468Z,95.20
2023-12-03T02:35:29.240Z,95.45
2023-12-03T02:37:59.621Z,95.08
2023-12-03T02:40:30.228Z,95.37
2023-12-03T02:42:58.626Z,95.50
2023-12-03T02:45:27.487Z,95.92
2023-12-03T02:47:55.851Z,96.01
2023-12-03T02:50:24.528Z,95.81
2023-12-03T02:52:52.776Z,95.81
2023-12-03T02:55:21.412Z,95.85
2023-12-03T02:57:51.349Z,95.93
2023-12-03T03:00:20.371Z,96.19
2023-12-03T03:02:48.643Z,96.07
2023-12-03T03:05:17.322Z,95.85
2023-12-03T03:07:45.589Z,95.68
2023-12-03T03:10:14.236Z,95.52
2023-12-03T03:12:42.500Z,95.51
2023-12-03T03:15:12.970Z,95.67
2023-12-03T03:17:41.392Z,95.60
2023-12-03T03:20:11.008Z,95.57
2023-12-03T03:22:39.241Z,95.43
2023-12-03T03:25:08.665Z,95.57
2023-12-03T03:27:36.810Z,95.26
2023-12-03T03:33:53.254Z,95.06
2023-12-03T03:36:23.170Z,95.26
2023-12-03T03:38:52.650Z,95.01
2023-12-03T03:41:21.298Z,94.58
2023-12-03T03:43:49.715Z,94.27
2023-12-03T03:46:18.156Z,94.58
2023-12-03T03:48:46.372Z,94.83
2023-12-03T03:51:15.129Z,94.62
2023-12-03T03:53:44.759Z,94.57
2023-12-03T03:56:14.565Z,94.86
2023-12-03T03:58:43.022Z,94.91
2023-12-03T04:01:12.442Z,95.33
2023-12-03T04:03:40.611Z,95.07
2023-12-03T04:06:09.585Z,94.86
2023-12-03T04:08:36.691Z,95.59
2023-12-03T04:11:06.854Z,95.60
2023-12-03T04:13:35.016Z,95.73
2023-12-03T04:16:03.782Z,94.92
2023-12-03T04:18:31.992Z,95.36
2023-12-03T04:21:00.518Z,95.00
2023-12-03T04:23:28.752Z,95.45
2023-12-03T04:25:57.295Z,95.75
2023-12-03T04:28:26.819Z,96.27
2023-12-03T04:30:58.072Z,95.90
2023-12-03T04:33:27.164Z,95.88
2023-12-03T04:35:55.712Z,96.46
2023-12-03T04:38:23.838Z,96.25
2023-12-03T04:40:54.325Z,96.91
2023-12-03T04:43:22.503Z,96.51
2023-12-03T04:45:52.767Z,96.89
2023-12-03T04:48:21.089Z,97.28
2023-12-03T04:50:49.663Z,96.87
2023-12-03T04:53:17.837Z,96.75
2023-12-03T04:55:46.258Z,97.14
2023-12-03T04:58:14.406Z,97.10
2023-12-03T05:00:42.920Z,96.99
2023-12-03T05:03:12.709Z,96.92
2023-12-03T05:05:41.364Z,96.90
2023-12-03T05:08:09.577Z,96.93
2023-12-03T05:10:38.257Z,96.57
2023-12-03T05:13:06.451Z,96.26
2023-12-03T05:15:34.934Z,95.81
2023-12-03T05:18:03.126Z,95.82
2023-12-03T05:20:33.581Z,95.60
2023-12-03T05:23:01.705Z,96.02
2023-12-03T05:25:30.183Z,95.66
2023-12-03T05:27:58.311Z,95.36
2023-12-03T05:30:26.970Z,95.43
2023-12-03T05:32:55.264Z,94.82
2023-12-03T05:35:23.927Z,94.61
2023-12-03T05:37:53.657Z,94.37
2023-12-03T05:40:22.414Z,93.40
2023-12-03T05:42:50.843Z,93.16
2023-12-03T05:45:21.084Z,93.17
2023-12-03T05:47:49.291Z,93.05
2023-12-03T05:50:17.936Z,92.75
2023-12-03T05:52:46.095Z,92.82
2023-12-03T05:55:16.027Z,93.43
2023-12-03T05:57:44.492Z,93.24
2023-12-03T06:00:13.767Z,93.52
2023-12-03T06:02:42.130Z,93.25
2023-12-03T06:05:10.862Z,94.01
2023-12-03T06:07:38.996Z,93.35
2023-12-03T06:10:08.224Z,93.59
2023-12-03T06:12:37.806Z,93.35
2023-12-03T06:15:06.696Z,92.71
2023-12-03T06:17:34.930Z,92.99
2023-12-03T06:20:04.172Z,93.02
2023-12-03T06:22:32.267Z,93.21
2023-12-03T06:25:05.229Z,93.13
2023-12-03T06:27:33.460Z,93.35
2023-12-03T06:30:05.508Z,92.87
2023-12-03T06:32:33.779Z,93.01
2023-12-03T06:35:08.124Z,92.75
2023-12-03T06:37:36.470Z,92.60
2023-12-03T06:40:05.875Z,92.45
2023-12-03T06:42:34.016Z,92.27
2023-12-03T06:45:02.528Z,92.53
2023-12-03T06:47:32.223Z,91.84
2023-12-03T06:50:00.821Z,92.08
2023-12-03T06:52:29.613Z,92.30
2023-12-03T06:54:58.194Z,91.83
2023-12-03T06:57:26.326Z,91.17
2023-12-03T06:59:54.948Z,91.62
2023-12-03T07:02:23.135Z,91.68
2023-12-03T07:04:53.202Z,91.40
2023-12-03T07:07:22.107Z,91.11
2023-12-03T07:09:50.695Z,90.99
2023-12-03T07:12:18.997Z,90.64
2023-12-03T07:14:48.016Z,89.73
2023-12-03T07:17:16.160Z,89.96
2023-12-03T07:19:45.184Z,90.21
2023-12-03T07:22:15.066Z,89.92
2023-12-03T07:24:43.979Z,89.54
2023-12-03T07:27:12.050Z,88.74
2023-12-03T07:29:40.445Z,88.72
2023-12-03T07:32:08.480Z,88.26
2023-12-03T07:34:36.925Z,88.51
2023-12-03T07:37:05.155Z,88.11
2023-12-03T07:39:35.013Z,88.41
2023-12-03T07:42:03.225Z,88.52
2023-12-03T07:44:31.699Z,88.31
2023-12-03T07:46:59.936Z,88.31
2023-12-03T07:49:28.508Z,88.10
2023-12-03T07:51:56.789Z,87.31
2023-12-03T07:54:25.419Z,87.46
2023-12-03T07:56:54.954Z,87.00
2023-12-03T07:59:23.725Z,87.13
2023-12-03T08:01:51.782Z,86.50
2023-12-03T08:04:20.402Z,86.23
2023-12-03T08:06:48.599Z,86.38
2023-12-03T08:09:17.047Z,85.80
2023-12-03T08:11:45.251Z,86.09
2023-12-03T08:14:15.100Z,85.94
2023-12-03T08:16:46.002Z,85.77
2023-12-03T08:19:15.031Z,86.07
2023-12-03T08:21:44.424Z,85.87
2023-12-03T08:24:16.676Z,85.66
2023-12-03T08:26:46.556Z,85.59
2023-12-03T08:29:20.425Z,85.69
2023-12-03T08:31:54.189Z,85.67
2023-12-03T08:34:34.212Z,85.11
2023-12-03T08:37:09.847Z,84.79
2023-12-03T08:39:39.782Z,84.10
2023-12-03T08:42:09.849Z,83.40
2023-12-03T08:44:40.746Z,84.33
2023-12-03T08:47:18.143Z,84.20
2023-12-03T08:50:02.377Z,83.04
2023-12-03T08:52:34.475Z,82.26
2023-12-03T08:55:05.351Z,81.89
2023-12-03T08:57:34.497Z,81.48
2023-12-03T09:00:14.090Z,80.82
2023-12-03T09:02:55.830Z,80.43
2023-12-03T09:06:03.780Z,80.16
2023-12-03T09:08:41.598Z,79.37
2023-12-03T09:11:17.240Z,79.01
2023-12-03T09:13:51.172Z,78.45
2023-12-03T09:16:27.522Z,78.26
2023-12-03T09:18:59.496Z,78.26
2023-12-03T09:21:38.879Z,78.60
2023-12-03T09:24:33.494Z,78.54
2023-12-03T09:27:17.811Z,78.72
2023-12-03T09:29:49.467Z,78.70
2023-12-03T09:32:49.445Z,78.38
2023-12-03T09:35:23.853Z,78.39
2023-12-03T09:37:55.835Z,78.42
2023-12-03T09:40:25.319Z,78.69
2023-12-03T09:42:59.161Z,78.85
2023-12-03T09:45:31.191Z,78.32
2023-12-03T09:48:19.924Z,77.83
2023-12-03T09:50:58.204Z,77.30
2023-12-03T09:53:37.630Z,77.00
2023-12-03T09:56:10.499Z,76.98
2023-12-03T09:59:03.619Z,76.79
2023-12-03T10:01:47.014Z,76.06
2023-12-03T10:04:58.314Z,76.29
2023-12-03T10:07:51.475Z,76.46
2023-12-03T10:10:44.093Z,76.31
2023-12-03T10:20:32.871Z,76.76
2023-12-03T10:47:17.383Z,71.82
2023-12-03T10:50:04.182Z,71.73
2023-12-03T10:52:37.226Z,71.30
2023-12-03T10:55:12.026Z,70.41
2023-12-03T10:58:15.226Z,69.50
2023-12-03T11:12:09.499Z,70.74
2023-12-03T11:18:59.645Z,70.98
2023-12-03T11:21:39.028Z,71.24
2023-12-03T11:24:22.317Z,71.37
2023-12-03T11:26:54.444Z,71.06
2023-12-03T11:29:47.880Z,71.32
2023-12-03T11:32:17.416Z,71.37
2023-12-03T11:34:55.349Z,71.50
2023-12-03T11:37:31.498Z,71.32
2023-12-03T11:40:13.873Z,71.51
2023-12-03T11:42:52.779Z,71.39
2023-12-03T11:45:32.424Z,71.16
2023-12-03T11:48:18.454Z,71.26
2023-12-03T11:50:50.677Z,71.26
2023-12-03T11:53:31.190Z,71.31
2023-12-03T11:56:03.991Z,71.16
2023-12-03T11:58:39.658Z,71.52
2023-12-03T12:01:10.540Z,72.45
2023-12-03T12:03:42.992Z,72.00
2023-12-03T12:06:23.509Z,72.53
2023-12-03T12:09:03.803Z,72.75
2023-12-03T12:11:35.385Z,72.95
2023-12-03T12:17:43.473Z,74.13
2023-12-03T12:23:15.248Z,74.68
2023-12-03T12:28:31.337Z,73.64
2023-12-03T12:31:07.068Z,73.45
2023-12-03T12:33:46.160Z,73.52
2023-12-03T12:36:20.916Z,73.15
2023-12-03T12:38:50.787Z,73.41
2023-12-03T12:41:41.012Z,73.82
2023-12-03T12:44:11.494Z,73.71
2023-12-03T12:46:53.761Z,74.01
2023-12-03T12:50:02.498Z,74.12
2023-12-03T12:52:44.828Z,74.34
2023-12-03T12:55:30.751Z,74.78
2023-12-03T12:58:06.204Z,74.95
2023-12-03T13:03:32.801Z,75.36
2023-12-03T13:06:12.227Z,75.74
2023-12-03T13:08:46.824Z,75.90
2023-12-03T13:11:21.756Z,75.68
2023-12-03T13:13:54.621Z,76.06
2023-12-03T13:16:47.768Z,76.34
2023-12-03T13:19:35.557Z,76.35
2023-12-03T13:22:31.481Z,76.29
2023-12-03T13:25:42.627Z,76.70
2023-12-03T13:28:19.936Z,76.94
2023-12-03T13:31:01.826Z,77.19
2023-12-03T13:34:10.093Z,77.11
2023-12-03T13:36:38.591Z,77.11
2023-12-03T13:39:15.750Z,77.16
2023-12-03T13:44:55.374Z,78.04
2023-12-03T13:48:18.819Z,78.51
2023-12-03T13:50:53.483Z,79.16
2023-12-03T13:53:27.431Z,79.59
2023-12-03T13:56:26.650Z,79.93
2023-12-03T13:59:07.916Z,80.44
2023-12-03T14:01:53.913Z,81.04
2023-12-03T14:04:25.947Z,81.07
2023-12-03T14:07:08.128Z,81.06
2023-12-03T14:09:53.713Z,82.35
2023-12-03T14:13:00.376Z,82.11
2023-12-03T14:15:55.897Z,83.36
2023-12-03T14:18:42.618Z,83.51
2023-12-03T14:21:33.354Z,84.45
2023-12-03T14:24:08.701Z,85.00
2023-12-03T14:26:59.547Z,85.97
2023-12-03T14:29:50.769Z,86.26
2023-12-03T14:32:35.156Z,86.64
2023-12-03T14:35:25.750Z,87.25
2023-12-03T14:38:09.630Z,87.67
2023-12-03T14:40:42.555Z,87.71
2023-12-03T14:43:21.688Z,87.85
2023-12-03T14:46:37.980Z,87.94
2023-12-03T15:00:24.101Z,87.53
2023-12-03T15:03:12.750Z,87.85
2023-12-03T15:09:19.024Z,88.15
2023-12-03T15:12:16.978Z,87.91
2023-12-03T15:14:48.968Z,88.07
2023-12-03T15:17:27.143Z,88.51
2023-12-03T15:20:27.014Z,88.28
2023-12-03T15:26:15.062Z,87.52
2023-12-03T15:29:14.650Z,87.11
2023-12-03T15:32:04.734Z,87.31
2023-12-03T15:34:33.675Z,87.62
2023-12-03T15:37:40.241Z,87.81
2023-12-03T15:41:06.727Z,87.66
2023-12-03T15:44:21.442Z,87.13
2023-12-03T15:46:57.559Z,87.21
2023-12-03T15:49:45.526Z,87.68
2023-12-03T15:52:17.236Z,87.94
2023-12-03T15:54:51.532Z,87.74
2023-12-03T15:57:25.825Z,88.18
2023-12-03T16:00:08.042Z,88.10
2023-12-03T16:02:46.157Z,88.16
2023-12-03T16:05:18.670Z,87.97
2023-12-03T16:07:50.322Z,88.10
2023-12-03T16:10:29.531Z,87.90
2023-12-03T16:13:07.343Z,88.45
2023-12-03T16:15:40.313Z,88.53
2023-12-03T16:18:15.781Z,88.63
2023-12-03T16:20:45.062Z,88.44
2023-12-03T16:23:21.757Z,88.43
2023-12-03T16:37:03.113Z,89.50
2023-12-03T16:39:42.034Z,89.64
2023-12-03T16:42:19.845Z,89.62
2023-12-03T16:44:53.982Z,89.78
2023-12-03T16:47:29.086Z,89.93
2023-12-03T16:50:05.702Z,89.57
2023-12-03T16:52:41.678Z,89.13
2023-12-03T16:55:14.875Z,88.23
2023-12-03T16:57:48.019Z,88.69
2023-12-03T17:00:18.872Z,89.33
2023-12-03T17:02:48.409Z,89.33
2023-12-03T17:05:19.006Z,89.70
2023-12-03T17:07:51.003Z,89.67
2023-12-03T17:10:33.227Z,89.39
2023-12-03T17:13:03.963Z,89.66
2023-12-03T17:15:35.900Z,89.61
2023-12-03T17:18:08.542Z,89.98
2023-12-03T17:20:47.865Z,90.26
2023-12-03T17:23:21.992Z,90.06
2023-12-03T17:25:55.571Z,90.29
2023-12-03T17:28:24.957Z,90.13
2023-12-03T17:31:09.897Z,90.09
2023-12-03T17:33:41.241Z,90.41
2023-12-03T17:36:11.088Z,90.65
2023-12-03T17:38:45.704Z,89.97
2023-12-03T17:41:14.698Z,90.28
2023-12-03T17:43:44.450Z,90.19
2023-12-03T17:46:20.632Z,90.96
2023-12-03T17:48:59.236Z,90.46
2023-12-03T17:51:31.461Z,90.92
2023-12-03T17:54:13.338Z,91.30
2023-12-03T17:56:42.365Z,90.92
2023-12-03T17:59:13.690Z,91.06
2023-12-03T18:01:45.455Z,91.09
2023-12-03T18:04:16.922Z,90.88
2023-12-03T18:06:45.345Z,90.67
2023-12-03T18:09:20.303Z,90.76
2023-12-03T18:11:52.213Z,90.39
2023-12-03T18:14:20.678Z,89.45
2023-12-03T18:16:57.823Z,89.70
2023-12-03T18:19:29.729Z,89.00
2023-12-03T18:22:00.939Z,88.61
2023-12-03T18:24:32.199Z,88.60
2023-12-03T18:27:04.218Z,88.04
2023-12-03T18:29:34.323Z,88.24
2023-12-03T18:32:02.951Z,88.51
2023-12-03T18:34:32.074Z,88.61
2023-12-03T18:37:02.253Z,88.71
2023-12-03T18:39:36.639Z,88.50
2023-12-03T18:42:07.112Z,88.15
2023-12-03T18:44:36.093Z,89.23
2023-12-03T18:47:06.375Z,89.32
2023-12-03T18:49:38.676Z,88.41
2023-12-03T18:52:12.189Z,88.08
2023-12-03T18:54:49.596Z,88.58
2023-12-03T18:57:18.681Z,88.84
2023-12-03T18:59:51.543Z,88.21
2023-12-03T19:02:21.438Z,87.76
2023-12-03T19:04:51.993Z,87.55
2023-12-03T19:07:23.415Z,86.74
2023-12-03T19:09:57.028Z,86.50
2023-12-03T19:12:29.718Z,86.68
2023-12-03T19:15:00.015Z,86.06
2023-12-03T19:17:28.933Z,86.11
2023-12-03T19:20:07.223Z,86.53
2023-12-03T19:22:37.078Z,86.39
2023-12-03T19:25:09.253Z,86.62
2023-12-03T19:27:45.350Z,86.59
2023-12-03T19:30:42.189Z,86.16
2023-12-03T19:33:23.318Z,85.98
2023-12-03T19:35:58.144Z,85.50
2023-12-03T19:38:28.812Z,85.41
2023-12-03T19:41:04.004Z,85.03
2023-12-03T19:43:37.817Z,84.90
2023-12-03T19:46:13.556Z,84.96
2023-12-03T19:48:50.797Z,85.19
2023-12-03T19:51:19.375Z,85.38
2023-12-03T19:53:53.237Z,85.15
2023-12-03T19:56:27.049Z,85.08
2023-12-03T20:01:43.982Z,84.60
2023-12-03T20:04:18.766Z,84.62
2023-12-03T20:06:47.498Z,84.38
2023-12-03T20:09:21.689Z,84.29
2023-12-03T20:12:04.533Z,83.81
2023-12-03T20:14:34.776Z,83.90
2023-12-03T20:17:04.344Z,84.10
2023-12-03T20:19:35.578Z,84.15
2023-12-03T20:22:04.333Z,83.92
2023-12-03T20:24:34.499Z,83.76
2023-12-03T20:27:04.913Z,83.61
2023-12-03T20:29:34.650Z,83.36
2023-12-03T20:32:04.917Z,83.53
2023-12-03T20:34:34.473Z,83.54
2023-12-03T20:37:08.466Z,83.12
2023-12-03T20:39:40.160Z,83.32
2023-12-03T20:44:52.919Z,83.08
2023-12-03T20:47:24.724Z,83.28
2023-12-03T20:49:53.278Z,83.29
2023-12-03T20:52:24.050Z,83.01
2023-12-03T20:54:52.456Z,83.74
2023-12-03T20:57:28.580Z,83.83
2023-12-03T20:59:57.862Z,84.33
2023-12-03T21:02:26.431Z,84.56
2023-12-03T21:04:55.944Z,84.32
2023-12-03T21:07:27.523Z,84.05
2023-12-03T21:09:55.972Z,84.34
2023-12-03T21:12:29.045Z,83.85
2023-12-03T21:14:57.212Z,83.87
2023-12-03T21:17:25.773Z,83.84
2023-12-03T21:19:54.082Z,83.89
2023-12-03T21:22:22.866Z,83.89
2023-12-03T21:24:52.521Z,84.05
2023-12-03T21:27:22.596Z,84.53
2023-12-03T21:29:54.570Z,84.32
2023-12-03T21:32:30.027Z,84.13
2023-12-03T21:34:59.870Z,84.05
2023-12-03T21:37:28.526Z,83.71
2023-12-03T21:39:57.996Z,83.97
2023-12-03T21:42:26.631Z,83.97
2023-12-03T21:44:57.025Z,83.91
2023-12-03T21:47:26.060Z,84.38
2023-12-03T21:49:54.261Z,84.27
2023-12-03T21:52:25.517Z,84.59
2023-12-03T21:54:55.546Z,85.06
2023-12-03T21:57:27.600Z,85.17
2023-12-03T21:59:57.535Z,85.77
2023-12-03T22:02:26.068Z,85.49
2023-12-03T22:04:54.531Z,85.43
2023-12-03T22:07:23.130Z,85.54
2023-12-03T22:09:51.329Z,85.50
2023-12-03T22:12:19.937Z,85.64
2023-12-03T22:14:48.182Z,85.46
2023-12-03T22:17:18.082Z,85.54
2023-12-03T22:19:46.385Z,85.27
2023-12-03T22:22:14.989Z,85.43
2023-12-03T22:24:43.199Z,85.35
2023-12-03T22:27:11.673Z,85.45
2023-12-03T22:29:48.000Z,85.68
2023-12-03T22:32:21.842Z,85.47
2023-12-03T22:34:50.002Z,85.21
2023-12-03T22:37:18.414Z,85.16
2023-12-03T22:39:46.649Z,85.25
2023-12-03T22:42:15.627Z,85.09
2023-12-03T22:44:43.971Z,85.42
2023-12-03T22:47:12.523Z,85.14
2023-12-03T22:49:43.618Z,85.36
2023-12-03T22:52:12.948Z,85.37
2023-12-03T22:54:41.118Z,85.31
2023-12-03T22:57:09.996Z,85.31
2023-12-03T22:59:38.129Z,85.59
2023-12-03T23:02:09.128Z,85.99
2023-12-03T23:04:37.428Z,86.38
2023-12-03T23:07:07.494Z,86.60
2023-12-03T23:09:37.902Z,86.85
2023-12-03T23:12:06.886Z,86.95
2023-12-03T23:14:35.442Z,87.06
2023-12-03T23:17:11.234Z,86.79
2023-12-03T23:19:39.722Z,86.66
2023-12-03T23:22:09.806Z,86.26
2023-12-03T23:24:37.976Z,86.54
2023-12-03T23:27:17.177Z,86.84
2023-12-03T23:29:47.939Z,86.64
2023-12-03T23:32:16.510Z,86.72
2023-12-03T23:34:44.927Z,86.36
2023-12-03T23:37:14.991Z,86.16
2023-12-03T23:39:43.321Z,86.15
2023-12-03T23:42:11.759Z,86.24
2023-12-03T23:44:46.296Z,87.00
2023-12-03T23:47:15.273Z,86.60
2023-12-03T23:49:43.587Z,86.49
2023-12-03T23:52:12.034Z,86.28
2023-12-03T23:54:41.529Z,86.38
2023-12-03T23:57:09.947Z,86.85
2023-12-03T23:59:38.144Z,87.02
